Time;durP1;ratioP1;P1;durP2;ratioP2;P2;SDS_P1;SDS_P2;PMS_P1;PMS_P2;Temp;Humidity;BMP_temperature;BMP_pressure;BME280_temperature;BME280_humidity;BME280_pressure;Samples;Min_cycle;Max_cycle;Signal;HPM_P1;HPM_P2
2023/09/10 00:02:25;;;;;;;18.67;14.17;;;;;;;18.73;100.00;100549.97;5017456;28;20041;-71
2023/09/10 00:04:53;;;;;;;18.30;13.95;;;;;;;18.77;100.00;100547.91;5027917;28;20057;-72
2023/09/10 00:07:21;;;;;;;15.75;14.05;;;;;;;18.79;100.00;100548.66;5008882;28;22106;-71
2023/09/10 00:09:49;;;;;;;17.83;14.70;;;;;;;18.68;100.00;100548.66;5030153;28;20494;-71
2023/09/10 00:12:17;;;;;;;16.98;14.63;;;;;;;18.62;100.00;100547.28;5020781;28;20795;-72
2023/09/10 00:14:45;;;;;;;20.20;14.57;;;;;;;18.52;100.00;100547.13;5005976;28;20053;-70
2023/09/10 00:17:14;;;;;;;15.98;13.52;;;;;;;18.48;100.00;100547.47;5027134;28;20050;-70
2023/09/10 00:19:42;;;;;;;16.63;14.20;;;;;;;18.44;100.00;100546.84;5012343;28;20048;-71
2023/09/10 00:22:11;;;;;;;17.67;13.95;;;;;;;18.39;100.00;100558.94;5009445;28;20081;-71
2023/09/10 00:24:39;;;;;;;18.65;14.15;;;;;;;18.33;100.00;100557.56;5008428;28;20052;-71
2023/09/10 00:27:07;;;;;;;17.45;14.45;;;;;;;18.29;100.00;100550.72;5007506;28;20042;-71
2023/09/10 00:29:34;;;;;;;16.35;14.00;;;;;;;18.27;100.00;100554.47;5019513;28;20037;-71
2023/09/10 00:32:03;;;;;;;19.08;14.18;;;;;;;18.23;100.00;100548.53;5025919;28;20260;-72
2023/09/10 00:34:33;;;;;;;15.77;13.63;;;;;;;18.23;100.00;100549.38;5022406;28;20042;-70
2023/09/10 00:37:01;;;;;;;16.40;13.43;;;;;;;18.21;100.00;100555.81;5041053;28;20127;-71
2023/09/10 00:39:29;;;;;;;16.35;14.05;;;;;;;18.20;100.00;100556.78;5019624;28;20052;-71
2023/09/10 00:41:59;;;;;;;16.90;13.68;;;;;;;18.17;100.00;100546.28;5026945;28;20465;-71
2023/09/10 00:44:27;;;;;;;15.02;13.48;;;;;;;18.13;100.00;100539.44;5026416;28;20042;-71
2023/09/10 00:46:57;;;;;;;16.08;13.48;;;;;;;18.14;100.00;100551.88;5023240;28;20054;-71
2023/09/10 00:49:27;;;;;;;16.88;13.82;;;;;;;18.14;100.00;100541.16;5019221;28;20045;-71
2023/09/10 00:51:57;;;;;;;14.73;12.48;;;;;;;18.15;100.00;100543.72;5026576;28;20091;-71
2023/09/10 00:54:26;;;;;;;14.05;12.60;;;;;;;18.16;100.00;100542.75;5035646;28;20048;-72
2023/09/10 00:56:54;;;;;;;15.40;13.50;;;;;;;18.22;100.00;100541.44;5020996;28;20045;-71
2023/09/10 00:59:22;;;;;;;15.07;13.48;;;;;;;18.24;100.00;100542.19;5022393;28;20053;-71
2023/09/10 01:01:52;;;;;;;17.52;13.73;;;;;;;18.22;100.00;100531.59;5022970;28;20041;-71
2023/09/10 01:04:23;;;;;;;18.10;13.95;;;;;;;18.24;100.00;100539.50;5003204;28;20050;-72
2023/09/10 01:06:52;;;;;;;17.17;13.20;;;;;;;18.17;100.00;100543.63;5023904;28;20402;-71
2023/09/10 01:09:21;;;;;;;15.98;14.20;;;;;;;18.07;100.00;100545.28;4994690;28;20069;-71
2023/09/10 01:12:02;;;;;;;15.23;13.65;;;;;;;18.03;100.00;100547.34;5017045;28;20037;-71
2023/09/10 01:14:35;;;;;;;16.35;14.38;;;;;;;17.90;100.00;100543.03;5022507;28;20042;-71
2023/09/10 01:17:11;;;;;;;16.80;13.60;;;;;;;17.90;100.00;100545.72;5033100;28;20049;-71
2023/09/10 01:19:53;;;;;;;14.95;13.38;;;;;;;17.92;100.00;100546.44;5018498;28;20037;-71
2023/09/10 01:22:31;;;;;;;15.35;13.52;;;;;;;18.01;100.00;100549.28;5021104;28;20033;-70
2023/09/10 01:25:02;;;;;;;17.55;13.68;;;;;;;18.04;100.00;100550.88;5015040;28;20070;-71
2023/09/10 01:27:30;;;;;;;15.70;13.43;;;;;;;18.03;100.00;100547.34;5024436;28;20037;-71
2023/09/10 01:29:58;;;;;;;17.60;14.18;;;;;;;18.01;100.00;100556.47;5032898;28;20050;-71
2023/09/10 01:32:32;;;;;;;14.93;12.98;;;;;;;17.95;100.00;100556.91;5017742;28;20783;-71
2023/09/10 01:35:08;;;;;;;14.93;13.07;;;;;;;17.90;100.00;100559.09;5021679;28;20172;-71
2023/09/10 01:37:41;;;;;;;21.10;14.45;;;;;;;17.85;100.00;100554.94;5021985;28;20398;-71
2023/09/10 01:40:19;;;;;;;14.88;13.02;;;;;;;17.83;100.00;100554.19;5014230;28;20045;-71
2023/09/10 01:42:50;;;;;;;14.63;13.07;;;;;;;17.77;100.00;100543.94;5035692;28;20406;-71
2023/09/10 01:45:19;;;;;;;15.52;13.68;;;;;;;17.84;100.00;100552.38;5025824;28;20149;-72
2023/09/10 01:47:47;;;;;;;16.17;13.63;;;;;;;17.82;100.00;100547.13;5018904;28;20048;-71
2023/09/10 01:50:16;;;;;;;14.90;13.23;;;;;;;17.77;100.00;100549.31;5013665;28;20510;-70
2023/09/10 01:52:45;;;;;;;16.70;13.52;;;;;;;17.69;100.00;100529.41;5021621;28;20053;-70
2023/09/10 01:55:15;;;;;;;19.05;14.27;;;;;;;17.77;100.00;100540.41;5018229;28;20060;-70
2023/09/10 01:57:43;;;;;;;17.48;13.38;;;;;;;17.77;100.00;100546.63;5007437;28;20045;-71
2023/09/10 02:00:12;;;;;;;17.63;13.90;;;;;;;17.78;100.00;100547.50;5019096;28;20041;-70
2023/09/10 02:02:40;;;;;;;16.88;13.15;;;;;;;17.80;100.00;100543.69;5014179;28;20041;-69
2023/09/10 02:05:09;;;;;;;16.13;13.52;;;;;;;17.80;100.00;100548.19;5022532;28;20055;-72
2023/09/10 02:07:38;;;;;;;15.55;13.27;;;;;;;17.77;100.00;100549.31;5032514;28;20615;-73
2023/09/10 02:10:08;;;;;;;16.05;14.35;;;;;;;17.73;100.00;100550.50;5009714;28;20036;-71
2023/09/10 02:12:38;;;;;;;17.58;14.20;;;;;;;17.67;100.00;100544.72;4981234;28;20137;-71
2023/09/10 02:15:08;;;;;;;15.82;13.60;;;;;;;17.58;100.00;100545.38;5006287;28;20473;-71
2023/09/10 02:17:36;;;;;;;16.90;13.73;;;;;;;17.58;100.00;100556.94;5011380;28;20123;-71
2023/09/10 02:20:09;;;;;;;14.38;12.85;;;;;;;17.55;100.00;100554.50;5009311;28;20046;-71
2023/09/10 02:22:38;;;;;;;16.05;13.98;;;;;;;17.55;100.00;100554.50;5006230;28;20128;-71
2023/09/10 02:25:08;;;;;;;15.52;12.93;;;;;;;17.52;100.00;100554.72;5013597;28;20136;-71
2023/09/10 02:27:36;;;;;;;16.92;13.27;;;;;;;17.44;100.00;100554.44;5006094;28;20049;-71
2023/09/10 02:30:09;;;;;;;14.98;13.32;;;;;;;17.45;100.00;100554.31;5003463;28;20041;-71
2023/09/10 02:32:38;;;;;;;15.68;13.23;;;;;;;17.44;100.00;100557.09;5005214;28;20057;-70
2023/09/10 02:35:07;;;;;;;15.68;14.00;;;;;;;17.45;100.00;100558.81;5020449;28;20304;-71
2023/09/10 02:37:35;;;;;;;14.52;13.02;;;;;;;17.45;100.00;100554.31;5013898;28;20045;-72
2023/09/10 02:40:06;;;;;;;14.60;12.40;;;;;;;17.43;100.00;100555.41;5005481;28;20041;-72
2023/09/10 02:42:34;;;;;;;15.15;13.27;;;;;;;17.45;100.00;100553.47;5009587;28;20171;-71
2023/09/10 02:45:03;;;;;;;16.02;13.27;;;;;;;17.41;100.00;100549.28;5015385;28;20050;-71
2023/09/10 02:47:32;;;;;;;16.30;13.48;;;;;;;17.35;100.00;100539.03;5007551;28;20046;-71
2023/09/10 02:50:00;;;;;;;15.93;13.30;;;;;;;17.29;100.00;100544.84;5006857;28;20041;-71
2023/09/10 02:52:30;;;;;;;15.68;14.00;;;;;;;17.23;100.00;100543.44;5006526;28;20037;-70
2023/09/10 02:54:58;;;;;;;16.63;12.95;;;;;;;17.23;100.00;100555.97;5001273;28;20049;-72
2023/09/10 02:57:26;;;;;;;17.30;13.38;;;;;;;17.20;100.00;100562.41;5004225;28;20433;-72
2023/09/10 02:59:54;;;;;;;15.68;13.80;;;;;;;17.18;100.00;100565.19;5016334;28;20092;-72
2023/09/10 03:02:22;;;;;;;15.15;13.00;;;;;;;17.22;100.00;100556.94;5008163;28;20056;-71
2023/09/10 03:04:53;;;;;;;14.10;12.52;;;;;;;17.26;100.00;100558.44;5013096;28;20154;-72
2023/09/10 03:07:21;;;;;;;16.02;13.82;;;;;;;17.23;100.00;100558.66;5006630;28;20049;-71
2023/09/10 03:09:50;;;;;;;15.13;12.93;;;;;;;17.21;100.00;100560.56;5000577;28;20041;-72
2023/09/10 03:12:23;;;;;;;15.85;13.45;;;;;;;17.19;100.00;100558.00;5007006;28;20040;-73
2023/09/10 03:14:53;;;;;;;19.48;13.27;;;;;;;17.17;100.00;100559.94;5011427;28;20060;-72
2023/09/10 03:17:22;;;;;;;14.60;12.73;;;;;;;17.19;100.00;100558.00;5015818;28;20099;-72
2023/09/10 03:19:51;;;;;;;15.82;12.93;;;;;;;17.12;100.00;100567.47;5026459;28;20164;-71
2023/09/10 03:22:20;;;;;;;17.10;14.43;;;;;;;17.07;100.00;100562.44;4990306;28;20049;-71
2023/09/10 03:24:48;;;;;;;15.05;13.35;;;;;;;16.97;100.00;100558.72;5007301;28;20491;-71
2023/09/10 03:27:16;;;;;;;16.75;14.15;;;;;;;16.93;100.00;100567.91;5008390;28;20054;-72
2023/09/10 03:29:45;;;;;;;15.05;12.10;;;;;;;16.88;100.00;100570.03;4972165;28;20089;-72
2023/09/10 03:32:14;;;;;;;15.35;13.50;;;;;;;16.91;100.00;100568.97;5021087;28;20076;-73
2023/09/10 03:34:47;;;;;;;14.38;12.88;;;;;;;16.94;100.00;100566.09;5009050;28;20831;-72
2023/09/10 03:37:16;;;;;;;14.70;12.88;;;;;;;16.90;100.00;100568.13;5003760;28;20041;-72
2023/09/10 03:39:44;;;;;;;14.38;12.88;;;;;;;16.92;100.00;100568.00;5008700;28;20050;-72
2023/09/10 03:42:12;;;;;;;15.85;13.68;;;;;;;16.88;100.00;100566.50;5012477;28;20042;-71
2023/09/10 03:44:40;;;;;;;15.40;12.80;;;;;;;16.87;100.00;100570.13;5022123;28;20042;-72
2023/09/10 03:47:08;;;;;;;16.00;12.45;;;;;;;16.92;100.00;100568.00;5025294;28;20157;-72
2023/09/10 03:49:37;;;;;;;16.95;13.30;;;;;;;16.93;100.00;100564.38;4997879;28;20049;-71
2023/09/10 03:52:17;;;;;;;13.88;12.48;;;;;;;16.92;100.00;100571.53;5021517;28;20045;-72
2023/09/10 03:54:45;;;;;;;13.73;12.07;;;;;;;16.91;100.00;100569.81;5034963;28;20053;-71
2023/09/10 03:57:13;;;;;;;14.60;12.65;;;;;;;16.88;100.00;100563.84;5027426;28;20037;-72
2023/09/10 03:59:41;;;;;;;17.63;13.23;;;;;;;16.88;100.00;100556.66;5013449;28;20042;-72
2023/09/10 04:02:10;;;;;;;14.48;12.85;;;;;;;16.91;100.00;100564.47;5010347;28;20440;-72
2023/09/10 04:04:39;;;;;;;13.98;12.25;;;;;;;16.90;100.00;100562.75;5006121;28;20053;-71
2023/09/10 04:07:07;;;;;;;16.48;12.18;;;;;;;16.88;100.00;100559.34;4992782;28;20498;-71
2023/09/10 04:09:36;;;;;;;13.88;12.25;;;;;;;16.88;100.00;100561.16;5002431;28;20056;-72
2023/09/10 04:12:04;;;;;;;15.13;11.87;;;;;;;16.84;100.00;100555.19;5000423;28;21011;-73
2023/09/10 04:14:32;;;;;;;13.80;11.82;;;;;;;16.81;100.00;100558.06;5000958;28;20057;-71
2023/09/10 04:17:00;;;;;;;15.40;12.20;;;;;;;16.75;100.00;100545.13;5009199;28;20060;-70
2023/09/10 04:19:28;;;;;;;14.00;12.40;;;;;;;16.78;100.00;100567.16;5004329;28;20057;-71
2023/09/10 04:21:56;;;;;;;13.82;11.63;;;;;;;16.80;100.00;100567.06;5008645;28;20065;-72
2023/09/10 04:24:24;;;;;;;13.75;11.70;;;;;;;16.78;100.00;100569.84;5006239;28;20038;-70
2023/09/10 04:26:53;;;;;;;13.43;12.00;;;;;;;16.80;100.00;100564.38;5007720;28;20048;-70
2023/09/10 04:29:22;;;;;;;13.90;12.50;;;;;;;16.77;100.00;100570.78;5024667;28;20053;-70
2023/09/10 04:31:50;;;;;;;13.73;12.23;;;;;;;16.71;100.00;100567.69;4993165;28;20053;-70
2023/09/10 04:34:18;;;;;;;15.73;13.65;;;;;;;16.70;100.00;100580.19;5013386;28;20103;-70
2023/09/10 04:36:46;;;;;;;14.43;12.63;;;;;;;16.69;100.00;100577.63;5010283;28;20140;-70
2023/09/10 04:39:19;;;;;;;15.93;12.25;;;;;;;16.64;100.00;100561.94;5009659;28;20042;-71
2023/09/10 04:41:47;;;;;;;14.95;12.88;;;;;;;16.72;100.00;100583.63;5009903;28;20050;-70
2023/09/10 04:44:18;;;;;;;18.05;13.88;;;;;;;16.72;100.00;100590.78;5013457;28;20115;-70
2023/09/10 04:46:46;;;;;;;15.30;13.43;;;;;;;16.67;100.00;100595.63;5014065;28;20046;-70
2023/09/10 04:49:14;;;;;;;15.48;13.75;;;;;;;16.61;100.00;100593.31;5012592;28;20053;-70
2023/09/10 04:51:43;;;;;;;16.52;13.38;;;;;;;16.58;100.00;100596.19;4985945;28;20041;-71
2023/09/10 04:54:11;;;;;;;14.85;12.73;;;;;;;16.47;100.00;100581.75;5009840;28;20057;-70
2023/09/10 04:56:39;;;;;;;15.52;13.38;;;;;;;16.63;100.00;100597.66;5010553;28;20045;-70
2023/09/10 04:59:07;;;;;;;17.05;13.65;;;;;;;16.62;100.00;100597.72;5032650;28;20052;-71
2023/09/10 05:01:36;;;;;;;17.20;14.25;;;;;;;16.56;100.00;100596.31;5013467;28;20140;-71
2023/09/10 05:04:05;;;;;;;20.77;14.40;;;;;;;16.58;100.00;100596.19;5009474;28;20514;-70
2023/09/10 05:06:33;;;;;;;19.20;14.05;;;;;;;16.58;100.00;100599.72;5008226;28;21099;-71
2023/09/10 05:09:02;;;;;;;15.13;13.52;;;;;;;16.61;100.00;100596.00;5007189;28;20046;-70
2023/09/10 05:11:30;;;;;;;15.77;13.60;;;;;;;16.57;100.00;100589.13;5003656;28;20049;-71
2023/09/10 05:13:57;;;;;;;15.18;13.57;;;;;;;16.67;100.00;100598.28;5006850;28;20108;-71
2023/09/10 05:16:29;;;;;;;14.57;13.00;;;;;;;16.67;100.00;100588.47;5009465;28;20069;-70
2023/09/10 05:18:59;;;;;;;14.75;13.15;;;;;;;16.71;100.00;100595.28;5004229;28;20046;-70
2023/09/10 05:21:27;;;;;;;15.10;12.95;;;;;;;16.73;100.00;100606.72;5008150;28;20115;-71
2023/09/10 05:23:56;;;;;;;16.05;13.10;;;;;;;16.72;100.00;100598.81;4994757;28;20112;-70
2023/09/10 05:26:24;;;;;;;16.23;13.63;;;;;;;16.72;100.00;100612.19;5006999;28;20156;-70
2023/09/10 05:28:53;;;;;;;16.10;13.68;;;;;;;16.69;100.00;100618.59;5013953;28;20041;-72
2023/09/10 05:31:21;;;;;;;15.45;13.30;;;;;;;16.69;100.00;100618.59;4977905;28;20037;-72
2023/09/10 05:33:51;;;;;;;15.95;14.35;;;;;;;16.69;100.00;100618.59;5010008;28;20580;-72
2023/09/10 05:36:20;;;;;;;16.50;13.43;;;;;;;16.69;100.00;100615.91;5026347;28;20052;-72
2023/09/10 05:38:52;;;;;;;17.05;12.98;;;;;;;16.71;100.00;100622.03;5015870;28;20077;-73
2023/09/10 05:41:20;;;;;;;18.50;14.85;;;;;;;16.64;100.00;100606.53;5006176;28;20054;-73
2023/09/10 05:43:48;;;;;;;16.73;14.20;;;;;;;16.73;100.00;100617.44;5024780;28;20514;-70
2023/09/10 05:46:17;;;;;;;18.98;15.73;;;;;;;16.71;100.00;100622.03;5023266;28;20045;-70
2023/09/10 05:48:46;;;;;;;19.15;15.23;;;;;;;16.76;100.00;100624.38;5024175;28;20045;-70
2023/09/10 05:51:14;;;;;;;17.55;14.90;;;;;;;16.79;100.00;100629.53;4993904;28;20041;-70
2023/09/10 05:53:44;;;;;;;17.35;15.27;;;;;;;16.83;100.00;100620.34;4995971;28;20049;-70
2023/09/10 05:56:12;;;;;;;;;;;;;;;16.88;100.00;100618.19;4995559;28;20046;-70
2023/09/10 05:58:40;;;;;;;15.43;13.43;;;;;;;16.93;100.00;100625.91;5027639;28;19929;-70
2023/09/10 06:01:09;;;;;;;17.63;14.10;;;;;;;17.05;100.00;100617.88;5024702;28;20053;-71
2023/09/10 06:03:37;;;;;;;15.95;13.30;;;;;;;17.15;100.00;100618.94;5015782;28;20138;-71
2023/09/10 06:06:05;;;;;;;16.02;14.32;;;;;;;17.18;100.00;100615.16;5029036;28;20029;-71
2023/09/10 06:08:33;;;;;;;16.35;14.63;;;;;;;17.28;100.00;100631.44;5027084;28;20097;-71
2023/09/10 06:11:02;;;;;;;16.65;13.35;;;;;;;17.35;100.00;100628.22;5022077;28;20073;-71
2023/09/10 06:13:31;;;;;;;18.60;15.48;;;;;;;17.44;100.00;100629.41;5006947;28;20050;-70
2023/09/10 06:16:02;;;;;;;17.35;14.57;;;;;;;17.48;100.00;100634.41;5025205;28;20053;-71
2023/09/10 06:18:31;;;;;;;15.57;13.48;;;;;;;17.52;100.00;100632.34;5015352;28;20061;-71
2023/09/10 06:20:59;;;;;;;17.27;14.35;;;;;;;17.52;100.00;100629.69;5018437;28;20722;-71
2023/09/10 06:23:27;;;;;;;16.98;13.80;;;;;;;17.68;100.00;100637.50;5007550;28;20049;-70
2023/09/10 06:25:55;;;;;;;15.10;13.48;;;;;;;17.75;100.00;100638.78;5019246;28;20045;-70
2023/09/10 06:28:27;;;;;;;16.40;14.18;;;;;;;17.75;100.00;100630.75;5024235;28;20041;-70
2023/09/10 06:30:55;;;;;;;18.93;14.40;;;;;;;17.82;100.00;100637.34;5022949;28;20061;-70
2023/09/10 06:33:24;;;;;;;16.90;14.45;;;;;;;17.80;100.00;100640.13;5019161;28;20053;-70
2023/09/10 06:35:52;;;;;;;18.48;14.43;;;;;;;17.88;100.00;100635.09;5014626;28;20050;-70
2023/09/10 06:38:21;;;;;;;17.88;13.40;;;;;;;17.97;100.00;100638.03;5026613;28;20117;-70
2023/09/10 06:40:51;;;;;;;17.58;13.93;;;;;;;18.04;100.00;100640.16;5034786;28;20084;-71
2023/09/10 06:43:19;;;;;;;;;;;;;;;18.18;100.00;100641.81;5008250;28;20042;-72
2023/09/10 06:46:03;;;;;;;15.63;13.10;;;;;;;18.29;100.00;100647.22;5037623;28;19933;-71
2023/09/10 06:48:31;;;;;;;15.87;13.50;;;;;;;18.40;100.00;100646.44;5024771;28;20072;-71
2023/09/10 06:51:00;;;;;;;15.93;14.18;;;;;;;18.47;100.00;100644.97;5017252;28;20060;-72
2023/09/10 06:53:31;;;;;;;14.23;12.60;;;;;;;18.74;100.00;100652.78;5016372;28;20073;-71
2023/09/10 06:56:00;;;;;;;14.45;12.45;;;;;;;19.08;100.00;100651.88;5017197;28;20052;-72
2023/09/10 06:58:28;;;;;;;13.98;12.32;;;;;;;19.35;100.00;100640.81;5002696;28;20049;-71
2023/09/10 07:00:56;;;;;;;14.82;12.05;;;;;;;19.69;100.00;100636.28;5004806;28;20499;-71
2023/09/10 07:03:25;;;;;;;14.40;11.98;;;;;;;20.16;100.00;100642.28;5022867;28;20051;-72
2023/09/10 07:05:53;;;;;;;13.45;11.25;;;;;;;20.45;100.00;100645.28;5020546;28;20061;-72
2023/09/10 07:08:22;;;;;;;15.13;12.68;;;;;;;20.77;100.00;100650.63;5009629;28;20088;-71
2023/09/10 07:10:50;;;;;;;15.52;12.85;;;;;;;20.98;100.00;100655.00;5040415;28;20079;-73
2023/09/10 07:13:18;;;;;;;15.18;12.52;;;;;;;21.14;100.00;100650.97;5024895;28;20084;-71
2023/09/10 07:15:46;;;;;;;16.92;12.90;;;;;;;21.32;100.00;100641.31;5036816;28;20068;-72
2023/09/10 07:18:14;;;;;;;19.30;14.02;;;;;;;21.39;100.00;100641.66;5032221;28;20045;-71
2023/09/10 07:20:44;;;;;;;16.55;12.52;;;;;;;21.61;100.00;100636.03;5022480;28;20068;-71
2023/09/10 07:23:13;;;;;;;15.30;11.48;;;;;;;21.86;100.00;100637.41;5033241;28;20045;-73
2023/09/10 07:25:41;;;;;;;14.02;11.88;;;;;;;22.21;100.00;100631.50;5034305;28;20057;-72
2023/09/10 07:28:09;;;;;;;12.52;11.23;;;;;;;22.46;100.00;100636.38;5025252;28;20148;-72
2023/09/10 07:30:37;;;;;;;12.45;9.85;;;;;;;22.72;100.00;100634.78;5030316;28;20541;-72
2023/09/10 07:33:05;;;;;;;14.20;10.43;;;;;;;22.97;100.00;100633.34;4990050;28;20503;-72
2023/09/10 07:35:33;;;;;;;12.85;10.38;;;;;;;23.18;100.00;100646.63;5018178;28;20104;-70
2023/09/10 07:38:04;;;;;;;10.65;9.55;;;;;;;23.33;100.00;100638.91;5033588;28;20056;-71
2023/09/10 07:40:32;;;;;;;11.07;9.75;;;;;;;23.52;100.00;100643.41;5010950;28;20052;-71
2023/09/10 07:43:02;;;;;;;12.25;9.90;;;;;;;23.56;100.00;100639.44;5015148;28;20052;-71
2023/09/10 07:45:30;;;;;;;12.73;9.73;;;;;;;23.76;100.00;100641.03;4990711;28;20050;-71
2023/09/10 07:47:59;;;;;;;11.10;9.48;;;;;;;23.90;100.00;100647.78;5031429;28;20472;-71
2023/09/10 07:50:28;;;;;;;12.88;9.20;;;;;;;24.17;100.00;100652.31;5015752;28;20041;-72
2023/09/10 07:52:56;;;;;;;13.25;9.80;;;;;;;24.45;100.00;100643.97;5026109;28;20048;-71
2023/09/10 07:55:26;;;;;;;10.15;8.95;;;;;;;24.82;100.00;100643.81;5003832;28;20123;-71
2023/09/10 07:57:54;;;;;;;10.70;9.60;;;;;;;25.11;100.00;100651.66;5015689;28;20575;-72
2023/09/10 08:00:21;;;;;;;10.10;8.50;;;;;;;25.24;100.00;100637.66;5024702;28;20033;-71
2023/09/10 08:02:49;;;;;;;11.15;8.95;;;;;;;25.43;98.51;100642.00;5027736;28;20337;-72
2023/09/10 08:05:18;;;;;;;13.45;8.82;;;;;;;25.55;96.98;100634.44;5003317;28;20042;-72
2023/09/10 08:07:46;;;;;;;10.48;8.07;;;;;;;25.64;94.32;100644.34;4992843;28;21166;-71
2023/09/10 08:10:14;;;;;;;11.35;9.05;;;;;;;25.62;93.73;100646.38;4996846;28;20041;-71
2023/09/10 08:12:43;;;;;;;11.02;9.10;;;;;;;25.50;93.59;100643.91;5016878;28;20054;-71
2023/09/10 08:15:11;;;;;;;9.10;8.18;;;;;;;25.44;93.32;100647.28;5020704;28;20041;-72
2023/09/10 08:17:39;;;;;;;13.23;9.00;;;;;;;25.04;95.13;100649.72;5012940;28;20041;-72
2023/09/10 08:20:08;;;;;;;11.82;9.45;;;;;;;24.52;99.89;100654.22;5008658;28;20510;-72
2023/09/10 08:22:36;;;;;;;11.38;8.90;;;;;;;24.20;100.00;100655.56;5002160;28;20119;-71
2023/09/10 08:25:07;;;;;;;9.18;8.27;;;;;;;24.41;100.00;100645.28;5010866;28;20045;-72
2023/09/10 08:27:36;;;;;;;10.98;8.32;;;;;;;24.85;98.01;100642.63;5018759;28;20056;-71
2023/09/10 08:30:07;;;;;;;8.88;7.97;;;;;;;25.26;95.53;100635.66;5013560;28;20092;-72
2023/09/10 08:32:36;;;;;;;9.02;8.13;;;;;;;25.76;88.55;100643.03;5013611;28;20524;-71
2023/09/10 08:35:06;;;;;;;9.63;7.60;;;;;;;26.09;82.28;100644.00;5035445;28;20046;-71
2023/09/10 08:37:34;;;;;;;9.00;7.38;;;;;;;26.51;79.06;100641.19;5022576;28;20056;-72
2023/09/10 08:40:03;;;;;;;9.85;8.85;;;;;;;26.90;74.36;100642.22;5018124;28;20072;-71
2023/09/10 08:42:39;;;;;;;10.07;8.02;;;;;;;26.86;72.83;100635.41;5001698;28;20076;-71
2023/09/10 08:45:12;;;;;;;11.32;8.35;;;;;;;26.62;75.75;100642.72;5013190;28;20498;-71
2023/09/10 08:47:43;;;;;;;9.98;7.88;;;;;;;26.21;77.21;100640.78;5011093;28;20041;-71
2023/09/10 08:50:12;;;;;;;8.75;7.75;;;;;;;25.72;82.12;100638.94;5013288;28;20464;-71
2023/09/10 08:52:43;;;;;;;12.18;9.27;;;;;;;25.42;85.75;100641.16;5010848;28;20057;-71
2023/09/10 08:55:13;;;;;;;9.63;8.15;;;;;;;25.23;86.06;100635.97;5013228;28;20056;-71
2023/09/10 08:57:43;;;;;;;8.50;7.70;;;;;;;25.09;88.04;100634.69;5026831;28;20766;-72
2023/09/10 09:00:14;;;;;;;10.25;9.05;;;;;;;24.98;90.28;100636.84;5025709;28;20140;-71
2023/09/10 09:02:43;;;;;;;12.95;8.80;;;;;;;24.93;91.61;100637.25;5012790;28;21546;-72
2023/09/10 09:05:14;;;;;;;9.93;8.98;;;;;;;24.90;91.84;100634.88;5003998;28;20054;-72
2023/09/10 09:07:49;;;;;;;9.38;8.25;;;;;;;24.95;91.49;100634.44;5023128;28;20057;-72
2023/09/10 09:10:20;;;;;;;9.68;8.07;;;;;;;24.96;90.85;100631.56;5021870;28;20049;-72
2023/09/10 09:12:50;;;;;;;13.65;9.15;;;;;;;24.97;88.58;100637.84;5025639;28;20869;-72
2023/09/10 09:15:20;;;;;;;;;;;;;;;24.94;89.12;100633.59;5030302;28;20045;-72
2023/09/10 09:17:48;;;;;;;11.95;8.57;;;;;;;24.96;90.27;100631.56;5024064;28;19921;-72
2023/09/10 09:20:20;;;;;;;11.95;9.07;;;;;;;24.95;90.57;100627.16;5017033;28;20042;-73
2023/09/10 09:22:51;;;;;;;10.27;8.30;;;;;;;24.95;90.36;100634.44;5017317;28;20045;-72
2023/09/10 09:25:19;;;;;;;10.07;8.80;;;;;;;25.05;90.90;100635.16;5024116;28;20052;-77
2023/09/10 09:27:48;;;;;;;9.15;8.18;;;;;;;25.13;89.18;100619.81;5006080;28;20052;-74
2023/09/10 09:30:19;;;;;;;10.13;9.13;;;;;;;25.39;84.85;100624.34;5021518;28;20034;-75
2023/09/10 09:32:48;;;;;;;11.37;9.40;;;;;;;25.46;85.93;100620.00;5012838;28;20835;-75
2023/09/10 09:35:16;;;;;;;9.37;8.40;;;;;;;25.50;84.87;100614.06;5016324;28;20111;-72
2023/09/10 09:37:44;;;;;;;10.57;8.95;;;;;;;25.60;84.14;100607.69;5021304;28;20117;-75
2023/09/10 09:40:12;;;;;;;10.30;8.30;;;;;;;25.80;82.06;100620.00;5022490;28;21794;-75
2023/09/10 09:42:40;;;;;;;9.73;8.68;;;;;;;25.89;79.90;100624.44;5015292;28;20046;-76
2023/09/10 09:45:09;;;;;;;9.15;8.02;;;;;;;25.99;79.88;100614.25;5021369;28;20823;-74
2023/09/10 09:47:38;;;;;;;11.10;8.87;;;;;;;26.13;78.22;100621.75;5016146;28;20060;-75
2023/09/10 09:50:13;;;;;;;10.75;8.13;;;;;;;26.23;77.10;100610.75;5019942;28;20046;-74
2023/09/10 09:52:42;;;;;;;10.20;8.77;;;;;;;26.17;77.18;100590.56;5029237;28;20069;-76
2023/09/10 09:55:10;;;;;;;10.25;8.57;;;;;;;26.33;76.67;100597.03;5023848;28;20490;-75
2023/09/10 09:57:38;;;;;;;10.93;8.65;;;;;;;26.50;75.72;100602.31;5029341;28;20053;-73
2023/09/10 10:00:10;;;;;;;10.07;8.27;;;;;;;26.62;72.43;100602.81;5017842;28;20041;-73
2023/09/10 10:02:43;;;;;;;9.63;8.40;;;;;;;26.69;72.13;100601.13;5021457;28;20057;-77
2023/09/10 10:05:12;;;;;;;10.85;8.52;;;;;;;26.75;71.73;100591.47;5019189;28;20045;-77
2023/09/10 10:07:43;;;;;;;10.77;8.23;;;;;;;26.83;71.85;100588.72;5018871;28;20062;-77
2023/09/10 10:10:20;;;;;;;10.70;8.68;;;;;;;26.97;69.17;100588.03;5027108;28;20045;-75
2023/09/10 10:12:50;;;;;;;9.63;8.00;;;;;;;27.09;67.83;100585.78;5018548;28;20500;-71
2023/09/10 10:15:20;;;;;;;8.95;8.00;;;;;;;27.18;67.28;100587.47;5034248;28;20521;-74
2023/09/10 10:17:50;;;;;;;10.02;7.70;;;;;;;27.24;67.85;100576.72;5024916;28;20037;-73
2023/09/10 10:20:19;;;;;;;9.57;7.90;;;;;;;27.35;65.43;100569.25;5019254;28;20142;-76
2023/09/10 10:22:47;;;;;;;10.95;7.63;;;;;;;27.43;62.51;100574.63;5013962;28;20085;-72
2023/09/10 10:25:15;;;;;;;10.60;8.02;;;;;;;27.47;62.50;100568.66;5020253;28;20240;-78
2023/09/10 10:27:44;;;;;;;12.90;8.30;;;;;;;27.43;62.51;100548.28;5005141;28;20045;-77
2023/09/10 10:30:15;;;;;;;8.90;7.35;;;;;;;27.62;61.19;100565.22;5002515;28;20050;-74
2023/09/10 10:32:46;;;;;;;9.50;7.38;;;;;;;27.70;63.02;100570.63;5013100;28;20049;-72
2023/09/10 10:35:16;;;;;;;10.45;7.85;;;;;;;27.77;60.35;100555.28;5030656;28;21013;-72
2023/09/10 10:37:48;;;;;;;10.60;7.65;;;;;;;27.71;61.13;100542.38;5021119;28;20141;-75
2023/09/10 10:40:19;;;;;;;9.70;7.95;;;;;;;27.68;61.21;100553.66;5035536;28;20056;-71
2023/09/10 10:42:50;;;;;;;9.55;7.85;;;;;;;27.79;60.96;100562.25;5015366;28;20052;-70
2023/09/10 10:45:19;;;;;;;12.48;8.27;;;;;;;27.82;58.80;100551.00;5024999;28;20125;-72
2023/09/10 10:47:50;;;;;;;11.35;8.52;;;;;;;27.88;60.45;100552.13;5026100;28;20548;-70
2023/09/10 10:50:26;;;;;;;9.50;8.43;;;;;;;28.00;60.15;100544.44;5005824;28;20096;-70
2023/09/10 10:52:59;;;;;;;10.25;8.40;;;;;;;28.05;60.32;100539.25;5026357;28;20423;-69
2023/09/10 10:55:33;;;;;;;10.10;7.75;;;;;;;28.09;60.78;100546.91;5015801;28;20466;-71
2023/09/10 10:58:03;;;;;;;10.48;8.30;;;;;;;28.21;57.98;100544.63;5028859;28;20063;-70
2023/09/10 11:00:31;;;;;;;9.20;7.50;;;;;;;28.32;57.22;100543.34;5024878;28;20085;-70
2023/09/10 11:03:10;;;;;;;11.45;8.05;;;;;;;28.42;56.42;100538.50;5030707;28;20046;-70
2023/09/10 11:06:05;;;;;;;10.85;7.82;;;;;;;28.49;57.26;100534.00;5035994;28;20087;-69
2023/09/10 11:08:36;;;;;;;10.75;8.13;;;;;;;28.58;57.54;100535.63;5039023;28;20058;-70
2023/09/10 11:11:05;;;;;;;11.45;8.50;;;;;;;28.69;56.27;100529.69;5027033;28;20056;-71
2023/09/10 11:13:33;;;;;;;10.55;7.57;;;;;;;28.62;56.34;100516.00;5018633;28;20060;-69
2023/09/10 11:16:16;;;;;;;11.77;8.90;;;;;;;28.58;58.32;100514.66;5020927;28;20116;-69
2023/09/10 11:18:46;;;;;;;10.85;8.13;;;;;;;28.51;58.46;100521.03;5021924;28;20052;-70